sensor_id;sensor_type;location;lat;lon;timestamp;pressure;altitude;pressure_sealevel;temperature;humidity
14689;BME280;7432;48.728;9.154;2022-07-29T00:01:21;96435.09;;;19.59;94.08
14689;BME280;7432;48.728;9.154;2022-07-29T00:03:48;96431.91;;;19.57;93.99
14689;BME280;7432;48.728;9.154;2022-07-29T00:06:14;96430.25;;;19.63;94.38
14689;BME280;7432;48.728;9.154;2022-07-29T00:08:41;96424.34;;;19.67;94.63
14689;BME280;7432;48.728;9.154;2022-07-29T00:11:09;96424.34;;;19.67;94.42
14689;BME280;7432;48.728;9.154;2022-07-29T00:13:35;96422.41;;;19.63;94.52
14689;BME280;7432;48.728;9.154;2022-07-29T00:16:02;96422.22;;;19.64;94.25
14689;BME280;7432;48.728;9.154;2022-07-29T00:18:28;96412.53;;;19.65;94.45
14689;BME280;7432;48.728;9.154;2022-07-29T00:20:55;96402.31;;;19.63;93.77
14689;BME280;7432;48.728;9.154;2022-07-29T00:23:22;96404.41;;;19.55;94.14
14689;BME280;7432;48.728;9.154;2022-07-29T00:25:48;96415.72;;;19.48;94.07
14689;BME280;7432;48.728;9.154;2022-07-29T00:28:16;96418.19;;;19.43;94.15
14689;BME280;7432;48.728;9.154;2022-07-29T00:30:42;96412.66;;;19.33;94.47
14689;BME280;7432;48.728;9.154;2022-07-29T00:33:09;96410.25;;;19.32;94.54
14689;BME280;7432;48.728;9.154;2022-07-29T00:35:35;96410.09;;;19.27;94.67
14689;BME280;7432;48.728;9.154;2022-07-29T00:38:11;96410.69;;;19.29;94.88
14689;BME280;7432;48.728;9.154;2022-07-29T00:40:37;96411.13;;;19.26;94.93
14689;BME280;7432;48.728;9.154;2022-07-29T00:43:04;96399.94;;;19.19;94.84
14689;BME280;7432;48.728;9.154;2022-07-29T00:45:32;96395.94;;;19.16;95.21
14689;BME280;7432;48.728;9.154;2022-07-29T00:47:58;96398.97;;;19.13;95.58
14689;BME280;7432;48.728;9.154;2022-07-29T00:50:25;96396.03;;;19.10;95.60
14689;BME280;7432;48.728;9.154;2022-07-29T00:52:52;96401.88;;;19.05;95.76
14689;BME280;7432;48.728;9.154;2022-07-29T00:55:19;96382.88;;;18.98;96.17
14689;BME280;7432;48.728;9.154;2022-07-29T00:57:46;96388.28;;;18.97;96.29
14689;BME280;7432;48.728;9.154;2022-07-29T01:00:15;96391.72;;;18.97;96.04
14689;BME280;7432;48.728;9.154;2022-07-29T01:02:43;96385.53;;;18.91;96.21
14689;BME280;7432;48.728;9.154;2022-07-29T01:05:11;96380.88;;;18.93;95.85
14689;BME280;7432;48.728;9.154;2022-07-29T01:07:38;96384.31;;;18.94;94.91
14689;BME280;7432;48.728;9.154;2022-07-29T01:10:07;96376.69;;;18.92;94.70
14689;BME280;7432;48.728;9.154;2022-07-29T01:12:37;96377.94;;;18.90;95.35
14689;BME280;7432;48.728;9.154;2022-07-29T01:15:06;96372.72;;;18.90;95.24
14689;BME280;7432;48.728;9.154;2022-07-29T01:17:36;96376.56;;;18.87;95.01
14689;BME280;7432;48.728;9.154;2022-07-29T01:20:10;96375.94;;;18.85;95.76
14689;BME280;7432;48.728;9.154;2022-07-29T01:23:01;96373.56;;;18.84;95.09
14689;BME280;7432;48.728;9.154;2022-07-29T01:25:45;96370.56;;;18.80;94.77
14689;BME280;7432;48.728;9.154;2022-07-29T01:31:19;96369.56;;;18.81;94.96
14689;BME280;7432;48.728;9.154;2022-07-29T01:33:55;96368.38;;;18.77;95.16
14689;BME280;7432;48.728;9.154;2022-07-29T01:36:29;96373.25;;;18.74;94.83
14689;BME280;7432;48.728;9.154;2022-07-29T01:39:01;96376.91;;;18.66;94.93
14689;BME280;7432;48.728;9.154;2022-07-29T01:41:31;96386.13;;;18.69;95.36
14689;BME280;7432;48.728;9.154;2022-07-29T01:44:02;96381.97;;;18.61;95.51
14689;BME280;7432;48.728;9.154;2022-07-29T01:46:34;96379.00;;;18.58;95.84
14689;BME280;7432;48.728;9.154;2022-07-29T01:49:06;96380.16;;;18.62;95.68
14689;BME280;7432;48.728;9.154;2022-07-29T01:51:40;96375.94;;;18.61;95.84
14689;BME280;7432;48.728;9.154;2022-07-29T01:54:11;96370.72;;;18.61;95.62
14689;BME280;7432;48.728;9.154;2022-07-29T01:56:39;96369.78;;;18.55;95.53
14689;BME280;7432;48.728;9.154;2022-07-29T01:59:08;96375.88;;;18.49;95.47
14689;BME280;7432;48.728;9.154;2022-07-29T02:01:37;96376.63;;;18.50;95.75
14689;BME280;7432;48.728;9.154;2022-07-29T02:04:07;96379.06;;;18.45;95.89
14689;BME280;7432;48.728;9.154;2022-07-29T02:06:38;96367.63;;;18.46;95.77
14689;BME280;7432;48.728;9.154;2022-07-29T02:09:06;96375.88;;;18.43;95.78
14689;BME280;7432;48.728;9.154;2022-07-29T02:11:35;96367.47;;;18.41;95.95
14689;BME280;7432;48.728;9.154;2022-07-29T02:14:04;96355.03;;;18.36;95.97
14689;BME280;7432;48.728;9.154;2022-07-29T02:16:33;96366.53;;;18.28;96.11
14689;BME280;7432;48.728;9.154;2022-07-29T02:19:03;96362.34;;;18.27;95.81
14689;BME280;7432;48.728;9.154;2022-07-29T02:21:32;96351.91;;;18.27;95.97
14689;BME280;7432;48.728;9.154;2022-07-29T02:24:00;96352.09;;;18.32;95.96
14689;BME280;7432;48.728;9.154;2022-07-29T02:26:29;96350.06;;;18.34;95.49
14689;BME280;7432;48.728;9.154;2022-07-29T02:28:57;96354.88;;;18.31;95.59
14689;BME280;7432;48.728;9.154;2022-07-29T02:31:27;96351.31;;;18.25;95.95
14689;BME280;7432;48.728;9.154;2022-07-29T02:33:55;96347.47;;;18.28;95.58
14689;BME280;7432;48.728;9.154;2022-07-29T02:36:24;96348.91;;;18.30;95.58
14689;BME280;7432;48.728;9.154;2022-07-29T02:38:52;96357.31;;;18.26;95.58
14689;BME280;7432;48.728;9.154;2022-07-29T02:41:26;96357.31;;;18.26;96.03
14689;BME280;7432;48.728;9.154;2022-07-29T02:43:55;96354.56;;;18.21;95.96
14689;BME280;7432;48.728;9.154;2022-07-29T02:46:29;96356.59;;;18.19;95.74
14689;BME280;7432;48.728;9.154;2022-07-29T02:49:00;96354.16;;;18.17;95.40
14689;BME280;7432;48.728;9.154;2022-07-29T02:51:39;96358.81;;;18.15;95.38
14689;BME280;7432;48.728;9.154;2022-07-29T02:54:07;96364.69;;;18.04;95.80
14689;BME280;7432;48.728;9.154;2022-07-29T02:56:36;96353.69;;;18.02;96.01
14689;BME280;7432;48.728;9.154;2022-07-29T02:59:09;96354.31;;;17.98;96.12
14689;BME280;7432;48.728;9.154;2022-07-29T03:01:39;96361.69;;;18.01;95.68
14689;BME280;7432;48.728;9.154;2022-07-29T03:04:07;96356.47;;;18.01;95.72
14689;BME280;7432;48.728;9.154;2022-07-29T03:06:37;96359.13;;;17.94;96.35
14689;BME280;7432;48.728;9.154;2022-07-29T03:09:06;96362.16;;;17.91;96.32
14689;BME280;7432;48.728;9.154;2022-07-29T03:11:33;96365.75;;;17.90;96.45
14689;BME280;7432;48.728;9.154;2022-07-29T03:14:01;96365.56;;;17.92;96.55
14689;BME280;7432;48.728;9.154;2022-07-29T03:16:28;96359.56;;;17.91;96.47
14689;BME280;7432;48.728;9.154;2022-07-29T03:18:55;96353.53;;;17.91;96.62
14689;BME280;7432;48.728;9.154;2022-07-29T03:21:22;96361.19;;;17.86;96.62
14689;BME280;7432;48.728;9.154;2022-07-29T03:23:49;96355.81;;;17.81;97.01
14689;BME280;7432;48.728;9.154;2022-07-29T03:26:16;96359.41;;;17.80;96.90
14689;BME280;7432;48.728;9.154;2022-07-29T03:28:42;96363.63;;;17.81;96.42
14689;BME280;7432;48.728;9.154;2022-07-29T03:31:09;96363.03;;;17.79;96.54
14689;BME280;7432;48.728;9.154;2022-07-29T03:33:35;96365.03;;;17.76;96.74
14689;BME280;7432;48.728;9.154;2022-07-29T03:36:02;96356.41;;;17.76;96.84
14689;BME280;7432;48.728;9.154;2022-07-29T03:38:30;96376.47;;;17.75;96.96
14689;BME280;7432;48.728;9.154;2022-07-29T03:41:02;96369.25;;;17.71;96.76
14689;BME280;7432;48.728;9.154;2022-07-29T03:43:30;96372.88;;;17.70;97.02
14689;BME280;7432;48.728;9.154;2022-07-29T03:45:59;96373.06;;;17.75;97.22
14689;BME280;7432;48.728;9.154;2022-07-29T03:48:27;96365.66;;;17.72;97.14
14689;BME280;7432;48.728;9.154;2022-07-29T03:50:56;96372.03;;;17.76;96.62
14689;BME280;7432;48.728;9.154;2022-07-29T03:53:22;96373.47;;;17.72;96.73
14689;BME280;7432;48.728;9.154;2022-07-29T03:55:53;96377.06;;;17.71;96.63
14689;BME280;7432;48.728;9.154;2022-07-29T03:58:23;96369.44;;;17.76;96.55
14689;BME280;7432;48.728;9.154;2022-07-29T04:00:53;96371.47;;;17.74;96.56
14689;BME280;7432;48.728;9.154;2022-07-29T04:03:20;96370.84;;;17.79;96.39
14689;BME280;7432;48.728;9.154;2022-07-29T04:05:57;96373.66;;;17.77;96.20
14689;BME280;7432;48.728;9.154;2022-07-29T04:08:24;96377.06;;;17.77;96.29
14689;BME280;7432;48.728;9.154;2022-07-29T04:10:50;96381.69;;;17.75;96.77
14689;BME280;7432;48.728;9.154;2022-07-29T04:13:17;96380.28;;;17.73;96.80
14689;BME280;7432;48.728;9.154;2022-07-29T04:15:45;96378.03;;;17.83;96.48
14689;BME280;7432;48.728;9.154;2022-07-29T04:18:12;96378.78;;;17.90;96.12
14689;BME280;7432;48.728;9.154;2022-07-29T04:20:38;96377.56;;;17.93;96.20
14689;BME280;7432;48.728;9.154;2022-07-29T04:23:05;96389.19;;;17.97;95.67
14689;BME280;7432;48.728;9.154;2022-07-29T04:25:31;96389.38;;;18.02;95.70
14689;BME280;7432;48.728;9.154;2022-07-29T04:27:57;96391.13;;;18.08;95.36
14689;BME280;7432;48.728;9.154;2022-07-29T04:30:30;96388.53;;;18.08;95.22
14689;BME280;7432;48.728;9.154;2022-07-29T04:32:58;96386.50;;;18.10;94.88
14689;BME280;7432;48.728;9.154;2022-07-29T04:35:26;96382.94;;;18.04;95.00
14689;BME280;7432;48.728;9.154;2022-07-29T04:37:52;96390.47;;;18.19;94.80
14689;BME280;7432;48.728;9.154;2022-07-29T04:40:19;96377.59;;;18.24;94.36
14689;BME280;7432;48.728;9.154;2022-07-29T04:42:46;96379.72;;;18.33;93.75
14689;BME280;7432;48.728;9.154;2022-07-29T04:45:13;96384.09;;;18.40;93.83
14689;BME280;7432;48.728;9.154;2022-07-29T04:47:39;96379.84;;;18.52;93.46
14689;BME280;7432;48.728;9.154;2022-07-29T04:50:08;96384.41;;;18.56;92.83
14689;BME280;7432;48.728;9.154;2022-07-29T04:52:35;96387.19;;;18.61;92.51
14689;BME280;7432;48.728;9.154;2022-07-29T04:55:02;96391.72;;;18.72;91.01
14689;BME280;7432;48.728;9.154;2022-07-29T04:57:29;96389.66;;;18.81;90.86
14689;BME280;7432;48.728;9.154;2022-07-29T04:59:55;96378.75;;;18.90;89.50
14689;BME280;7432;48.728;9.154;2022-07-29T05:02:22;96384.25;;;19.01;89.31
14689;BME280;7432;48.728;9.154;2022-07-29T05:04:48;96380.94;;;19.12;88.18
14689;BME280;7432;48.728;9.154;2022-07-29T05:07:16;96384.41;;;19.24;87.46
14689;BME280;7432;48.728;9.154;2022-07-29T05:09:43;96377.63;;;19.41;86.57
14689;BME280;7432;48.728;9.154;2022-07-29T05:12:09;96381.03;;;19.60;85.61
14689;BME280;7432;48.728;9.154;2022-07-29T05:14:36;96387.50;;;19.75;84.75
14689;BME280;7432;48.728;9.154;2022-07-29T05:17:02;96396.63;;;19.84;83.84
14689;BME280;7432;48.728;9.154;2022-07-29T05:19:29;96393.41;;;20.00;83.22
14689;BME280;7432;48.728;9.154;2022-07-29T05:21:55;96395.84;;;20.14;82.38
14689;BME280;7432;48.728;9.154;2022-07-29T05:24:23;96393.50;;;20.24;82.78
14689;BME280;7432;48.728;9.154;2022-07-29T05:26:49;96403.22;;;20.35;82.33
14689;BME280;7432;48.728;9.154;2022-07-29T05:29:15;96403.72;;;20.43;81.41
14689;BME280;7432;48.728;9.154;2022-07-29T05:31:42;96402.25;;;20.59;80.40
14689;BME280;7432;48.728;9.154;2022-07-29T05:34:08;96402.41;;;20.76;79.80
14689;BME280;7432;48.728;9.154;2022-07-29T05:36:35;96401.63;;;20.98;78.73
14689;BME280;7432;48.728;9.154;2022-07-29T05:39:01;96402.66;;;21.20;78.16
14689;BME280;7432;48.728;9.154;2022-07-29T05:41:31;96405.38;;;21.37;76.12
14689;BME280;7432;48.728;9.154;2022-07-29T05:43:57;96410.88;;;21.47;76.39
14689;BME280;7432;48.728;9.154;2022-07-29T05:46:24;96408.53;;;21.74;74.72
14689;BME280;7432;48.728;9.154;2022-07-29T05:48:50;96408.63;;;21.91;74.10
14689;BME280;7432;48.728;9.154;2022-07-29T05:51:17;96410.53;;;21.95;73.71
14689;BME280;7432;48.728;9.154;2022-07-29T05:53:43;96416.78;;;22.06;73.48
14689;BME280;7432;48.728;9.154;2022-07-29T05:56:10;96422.44;;;22.14;72.85
14689;BME280;7432;48.728;9.154;2022-07-29T05:58:37;96419.97;;;22.36;72.02
14689;BME280;7432;48.728;9.154;2022-07-29T06:01:04;96428.25;;;22.44;70.93
14689;BME280;7432;48.728;9.154;2022-07-29T06:03:30;96423.84;;;22.62;69.97
14689;BME280;7432;48.728;9.154;2022-07-29T06:05:57;96432.13;;;22.87;69.57
14689;BME280;7432;48.728;9.154;2022-07-29T06:08:23;96425.47;;;22.96;68.52
14689;BME280;7432;48.728;9.154;2022-07-29T06:10:50;96429.81;;;23.24;66.96
14689;BME280;7432;48.728;9.154;2022-07-29T06:13:16;96433.19;;;23.74;65.86
14689;BME280;7432;48.728;9.154;2022-07-29T06:15:44;96437.66;;;24.44;64.34
14689;BME280;7432;48.728;9.154;2022-07-29T06:18:11;96440.81;;;25.73;59.83
14689;BME280;7432;48.728;9.154;2022-07-29T06:20:38;96454.09;;;27.56;55.20
14689;BME280;7432;48.728;9.154;2022-07-29T06:23:04;96453.16;;;29.61;49.42
14689;BME280;7432;48.728;9.154;2022-07-29T06:25:31;96465.53;;;31.30;44.93
14689;BME280;7432;48.728;9.154;2022-07-29T06:28:00;96455.03;;;32.83;41.44
14689;BME280;7432;48.728;9.154;2022-07-29T06:30:26;96461.66;;;34.40;38.37
14689;BME280;7432;48.728;9.154;2022-07-29T06:32:55;96463.97;;;35.61;36.46
14689;BME280;7432;48.728;9.154;2022-07-29T06:35:21;96469.91;;;36.43;35.13
14689;BME280;7432;48.728;9.154;2022-07-29T06:37:48;96469.41;;;37.11;33.30
14689;BME280;7432;48.728;9.154;2022-07-29T06:40:14;96468.91;;;37.75;33.20
14689;BME280;7432;48.728;9.154;2022-07-29T06:42:58;96468.72;;;38.40;32.65
14689;BME280;7432;48.728;9.154;2022-07-29T06:45:24;96474.16;;;39.08;31.11
14689;BME280;7432;48.728;9.154;2022-07-29T06:47:52;96479.78;;;39.03;31.49
14689;BME280;7432;48.728;9.154;2022-07-29T06:50:20;96482.41;;;37.87;32.32
14689;BME280;7432;48.728;9.154;2022-07-29T06:52:46;96470.72;;;36.14;34.83
14689;BME280;7432;48.728;9.154;2022-07-29T06:55:13;96471.66;;;35.08;36.73
14689;BME280;7432;48.728;9.154;2022-07-29T06:57:40;96472.22;;;33.97;38.08
14689;BME280;7432;48.728;9.154;2022-07-29T07:00:07;96471.84;;;33.28;39.94
14689;BME280;7432;48.728;9.154;2022-07-29T07:02:34;96469.91;;;33.20;39.94
14689;BME280;7432;48.728;9.154;2022-07-29T07:05:01;96468.63;;;34.58;38.71
14689;BME280;7432;48.728;9.154;2022-07-29T07:07:28;96469.72;;;34.57;37.67
14689;BME280;7432;48.728;9.154;2022-07-29T07:09:55;96476.53;;;34.89;37.90
14689;BME280;7432;48.728;9.154;2022-07-29T07:12:21;96484.00;;;35.55;36.58
14689;BME280;7432;48.728;9.154;2022-07-29T07:14:48;96492.03;;;35.64;36.37
14689;BME280;7432;48.728;9.154;2022-07-29T07:17:14;96488.91;;;36.00;35.42
14689;BME280;7432;48.728;9.154;2022-07-29T07:19:40;96489.13;;;36.24;35.12
14689;BME280;7432;48.728;9.154;2022-07-29T07:22:07;96496.34;;;35.94;36.04
14689;BME280;7432;48.728;9.154;2022-07-29T07:24:35;96488.47;;;35.00;37.21
14689;BME280;7432;48.728;9.154;2022-07-29T07:27:01;96489.34;;;33.87;39.32
14689;BME280;7432;48.728;9.154;2022-07-29T07:29:28;96493.00;;;33.61;39.60
14689;BME280;7432;48.728;9.154;2022-07-29T07:31:54;96490.50;;;33.20;40.00
14689;BME280;7432;48.728;9.154;2022-07-29T07:34:21;96485.78;;;33.70;40.13
14689;BME280;7432;48.728;9.154;2022-07-29T07:36:47;96488.31;;;33.22;39.75
14689;BME280;7432;48.728;9.154;2022-07-29T07:39:14;96490.69;;;32.38;42.24
14689;BME280;7432;48.728;9.154;2022-07-29T07:41:41;96492.00;;;33.12;41.35
14689;BME280;7432;48.728;9.154;2022-07-29T07:44:08;96494.47;;;35.14;38.45
14689;BME280;7432;48.728;9.154;2022-07-29T07:46:34;96498.13;;;36.49;34.83
14689;BME280;7432;48.728;9.154;2022-07-29T07:49:01;96499.09;;;38.29;33.99
14689;BME280;7432;48.728;9.154;2022-07-29T07:51:27;96502.69;;;39.64;30.91
14689;BME280;7432;48.728;9.154;2022-07-29T07:53:54;96499.16;;;39.48;31.06
14689;BME280;7432;48.728;9.154;2022-07-29T07:56:20;96493.94;;;38.60;32.28
14689;BME280;7432;48.728;9.154;2022-07-29T07:58:48;96498.00;;;38.42;32.78
14689;BME280;7432;48.728;9.154;2022-07-29T08:01:14;96500.13;;;38.61;32.36
14689;BME280;7432;48.728;9.154;2022-07-29T08:03:44;96505.88;;;38.99;30.94
14689;BME280;7432;48.728;9.154;2022-07-29T08:06:10;96504.88;;;39.90;30.12
14689;BME280;7432;48.728;9.154;2022-07-29T08:08:36;96506.25;;;40.47;30.34
14689;BME280;7432;48.728;9.154;2022-07-29T08:11:03;96510.50;;;41.59;29.05
14689;BME280;7432;48.728;9.154;2022-07-29T08:13:29;96507.34;;;43.00;27.11
14689;BME280;7432;48.728;9.154;2022-07-29T08:15:58;96507.25;;;42.67;27.41
14689;BME280;7432;48.728;9.154;2022-07-29T08:18:28;96508.81;;;42.68;27.04
14689;BME280;7432;48.728;9.154;2022-07-29T08:20:55;96502.22;;;43.29;26.29
14689;BME280;7432;48.728;9.154;2022-07-29T08:23:22;96496.44;;;44.11;25.41
14689;BME280;7432;48.728;9.154;2022-07-29T08:25:48;96511.00;;;45.01;24.69
14689;BME280;7432;48.728;9.154;2022-07-29T08:28:15;96506.78;;;45.18;24.87
14689;BME280;7432;48.728;9.154;2022-07-29T08:30:42;96507.44;;;44.87;24.54
14689;BME280;7432;48.728;9.154;2022-07-29T08:33:09;96508.75;;;45.14;24.16
14689;BME280;7432;48.728;9.154;2022-07-29T08:35:36;96505.28;;;45.31;24.44
14689;BME280;7432;48.728;9.154;2022-07-29T08:38:02;96504.97;;;44.60;24.96
14689;BME280;7432;48.728;9.154;2022-07-29T08:40:29;96500.00;;;44.15;24.06
14689;BME280;7432;48.728;9.154;2022-07-29T08:42:56;96496.22;;;43.46;23.98
14689;BME280;7432;48.728;9.154;2022-07-29T08:45:23;96497.72;;;42.24;24.75
14689;BME280;7432;48.728;9.154;2022-07-29T08:47:49;96503.41;;;43.31;23.35
14689;BME280;7432;48.728;9.154;2022-07-29T08:50:17;96500.13;;;44.36;22.31
14689;BME280;7432;48.728;9.154;2022-07-29T08:52:43;96507.34;;;44.69;22.38
14689;BME280;7432;48.728;9.154;2022-07-29T08:55:10;96502.59;;;43.64;22.60
14689;BME280;7432;48.728;9.154;2022-07-29T08:57:38;96501.69;;;44.41;21.92
14689;BME280;7432;48.728;9.154;2022-07-29T09:00:07;96513.97;;;45.68;20.76
14689;BME280;7432;48.728;9.154;2022-07-29T09:02:39;96513.63;;;46.12;21.01
14689;BME280;7432;48.728;9.154;2022-07-29T09:05:07;96514.78;;;46.22;20.83
14689;BME280;7432;48.728;9.154;2022-07-29T09:07:35;96516.72;;;46.53;20.34
14689;BME280;7432;48.728;9.154;2022-07-29T09:10:02;96517.84;;;45.67;21.03
14689;BME280;7432;48.728;9.154;2022-07-29T09:12:30;96519.97;;;45.09;22.13
14689;BME280;7432;48.728;9.154;2022-07-29T09:14:57;96512.63;;;45.20;20.89
14689;BME280;7432;48.728;9.154;2022-07-29T09:17:41;96517.41;;;45.44;20.57
14689;BME280;7432;48.728;9.154;2022-07-29T09:20:09;96508.25;;;44.91;21.74
14689;BME280;7432;48.728;9.154;2022-07-29T09:22:39;96510.84;;;45.91;21.00
14689;BME280;7432;48.728;9.154;2022-07-29T09:25:06;96508.00;;;44.52;22.07
14689;BME280;7432;48.728;9.154;2022-07-29T09:27:33;96499.63;;;43.39;22.55
14689;BME280;7432;48.728;9.154;2022-07-29T09:30:00;96501.56;;;43.35;23.01
14689;BME280;7432;48.728;9.154;2022-07-29T09:32:28;96494.13;;;43.69;22.49
14689;BME280;7432;48.728;9.154;2022-07-29T09:35:16;96501.84;;;43.63;22.64
14689;BME280;7432;48.728;9.154;2022-07-29T09:37:44;96498.38;;;42.44;23.75
14689;BME280;7432;48.728;9.154;2022-07-29T09:40:12;96491.66;;;40.86;24.85
14689;BME280;7432;48.728;9.154;2022-07-29T09:42:41;96486.44;;;38.53;28.04
14689;BME280;7432;48.728;9.154;2022-07-29T09:45:08;96476.50;;;37.49;27.88
14689;BME280;7432;48.728;9.154;2022-07-29T09:47:44;96472.84;;;38.62;27.45
14689;BME280;7432;48.728;9.154;2022-07-29T09:50:12;96476.13;;;38.95;26.74
14689;BME280;7432;48.728;9.154;2022-07-29T09:52:46;96476.09;;;38.31;27.55
14689;BME280;7432;48.728;9.154;2022-07-29T09:55:13;96476.31;;;36.79;29.63
14689;BME280;7432;48.728;9.154;2022-07-29T09:57:40;96469.72;;;36.89;28.94
14689;BME280;7432;48.728;9.154;2022-07-29T10:00:09;96470.44;;;37.19;28.65
14689;BME280;7432;48.728;9.154;2022-07-29T10:02:36;96454.03;;;36.00;30.07
14689;BME280;7432;48.728;9.154;2022-07-29T10:05:05;96444.81;;;34.31;32.13
14689;BME280;7432;48.728;9.154;2022-07-29T10:07:47;96454.19;;;34.11;32.95
14689;BME280;7432;48.728;9.154;2022-07-29T10:10:19;96449.69;;;33.89;33.13
14689;BME280;7432;48.728;9.154;2022-07-29T10:12:51;96453.72;;;34.09;33.88
14689;BME280;7432;48.728;9.154;2022-07-29T10:15:18;96447.00;;;34.29;34.20
14689;BME280;7432;48.728;9.154;2022-07-29T10:17:45;96442.16;;;34.99;33.79
14689;BME280;7432;48.728;9.154;2022-07-29T10:20:13;96451.53;;;35.48;33.72
14689;BME280;7432;48.728;9.154;2022-07-29T10:22:40;96451.75;;;35.35;34.38
14689;BME280;7432;48.728;9.154;2022-07-29T10:25:09;96438.06;;;35.19;33.75
14689;BME280;7432;48.728;9.154;2022-07-29T10:27:36;96436.66;;;34.96;34.92
14689;BME280;7432;48.728;9.154;2022-07-29T10:30:03;96432.06;;;34.45;34.88
14689;BME280;7432;48.728;9.154;2022-07-29T10:32:39;96438.69;;;33.91;35.75
14689;BME280;7432;48.728;9.154;2022-07-29T10:35:19;96435.19;;;32.98;37.60
14689;BME280;7432;48.728;9.154;2022-07-29T10:38:34;96431.34;;;32.33;38.46
14689;BME280;7432;48.728;9.154;2022-07-29T10:41:18;96431.00;;;31.71;39.71
14689;BME280;7432;48.728;9.154;2022-07-29T10:43:59;96429.78;;;31.18;41.22
14689;BME280;7432;48.728;9.154;2022-07-29T10:46:27;96415.19;;;30.27;43.31
14689;BME280;7432;48.728;9.154;2022-07-29T10:49:09;96416.47;;;29.63;43.36
14689;BME280;7432;48.728;9.154;2022-07-29T10:51:52;96426.66;;;29.27;43.11
14689;BME280;7432;48.728;9.154;2022-07-29T10:54:42;96430.09;;;28.60;46.00
14689;BME280;7432;48.728;9.154;2022-07-29T10:57:19;96444.06;;;28.27;47.16
14689;BME280;7432;48.728;9.154;2022-07-29T10:59:47;96448.72;;;27.86;50.25
14689;BME280;7432;48.728;9.154;2022-07-29T11:02:42;96472.34;;;27.32;54.52
14689;BME280;7432;48.728;9.154;2022-07-29T11:05:10;96478.44;;;26.87;58.34
14689;BME280;7432;48.728;9.154;2022-07-29T11:07:39;96472.19;;;26.26;58.37
14689;BME280;7432;48.728;9.154;2022-07-29T11:10:24;96481.53;;;25.87;64.82
14689;BME280;7432;48.728;9.154;2022-07-29T11:12:52;96512.22;;;25.24;63.30
14689;BME280;7432;48.728;9.154;2022-07-29T11:15:20;96504.44;;;24.33;67.68
14689;BME280;7432;48.728;9.154;2022-07-29T11:18:04;96478.09;;;23.89;74.51
14689;BME280;7432;48.728;9.154;2022-07-29T11:20:38;96478.97;;;22.62;76.28
14689;BME280;7432;48.728;9.154;2022-07-29T11:23:23;96481.81;;;21.80;77.33
14689;BME280;7432;48.728;9.154;2022-07-29T11:26:14;96477.25;;;21.76;80.34
14689;BME280;7432;48.728;9.154;2022-07-29T11:28:57;96491.72;;;21.78;79.98
14689;BME280;7432;48.728;9.154;2022-07-29T11:31:33;96476.91;;;21.72;80.25
14689;BME280;7432;48.728;9.154;2022-07-29T11:34:20;96478.06;;;21.65;83.52
14689;BME280;7432;48.728;9.154;2022-07-29T11:37:18;96480.78;;;21.70;86.87
14689;BME280;7432;48.728;9.154;2022-07-29T11:39:46;96488.44;;;21.71;82.72
14689;BME280;7432;48.728;9.154;2022-07-29T11:42:37;96492.22;;;21.87;84.42
14689;BME280;7432;48.728;9.154;2022-07-29T11:45:06;96481.34;;;21.95;85.59
14689;BME280;7432;48.728;9.154;2022-07-29T11:47:36;96497.34;;;21.94;85.29
14689;BME280;7432;48.728;9.154;2022-07-29T11:50:05;96505.09;;;21.77;82.18
14689;BME280;7432;48.728;9.154;2022-07-29T11:52:32;96499.69;;;21.83;84.41
14689;BME280;7432;48.728;9.154;2022-07-29T11:55:03;96498.78;;;21.78;83.98
14689;BME280;7432;48.728;9.154;2022-07-29T11:57:31;96493.00;;;21.41;77.39
14689;BME280;7432;48.728;9.154;2022-07-29T12:00:00;96493.44;;;21.26;78.30
14689;BME280;7432;48.728;9.154;2022-07-29T12:02:39;96487.31;;;21.33;80.02
14689;BME280;7432;48.728;9.154;2022-07-29T12:05:07;96481.50;;;21.42;83.40
14689;BME280;7432;48.728;9.154;2022-07-29T12:07:34;96478.66;;;21.32;76.59
14689;BME280;7432;48.728;9.154;2022-07-29T12:10:02;96484.25;;;21.36;79.93
14689;BME280;7432;48.728;9.154;2022-07-29T12:12:29;96481.50;;;21.42;81.16
14689;BME280;7432;48.728;9.154;2022-07-29T12:14:55;96475.22;;;21.32;77.36
14689;BME280;7432;48.728;9.154;2022-07-29T12:17:26;96479.22;;;21.57;81.31
14689;BME280;7432;48.728;9.154;2022-07-29T12:19:55;96480.13;;;21.74;81.79
14689;BME280;7432;48.728;9.154;2022-07-29T12:22:25;96480.09;;;21.86;82.49
14689;BME280;7432;48.728;9.154;2022-07-29T12:24:52;96474.94;;;22.14;83.12
14689;BME280;7432;48.728;9.154;2022-07-29T12:27:19;96471.66;;;22.35;81.68
14689;BME280;7432;48.728;9.154;2022-07-29T12:29:54;96474.78;;;22.49;79.09
14689;BME280;7432;48.728;9.154;2022-07-29T12:32:21;96468.84;;;22.54;76.84
14689;BME280;7432;48.728;9.154;2022-07-29T12:34:48;96467.66;;;22.61;76.27
14689;BME280;7432;48.728;9.154;2022-07-29T12:37:16;96466.91;;;22.49;78.46
14689;BME280;7432;48.728;9.154;2022-07-29T12:39:42;96465.44;;;22.53;78.49
14689;BME280;7432;48.728;9.154;2022-07-29T12:42:11;96474.00;;;22.49;78.67
14689;BME280;7432;48.728;9.154;2022-07-29T12:44:45;96464.91;;;22.39;76.36
14689;BME280;7432;48.728;9.154;2022-07-29T12:47:12;96462.25;;;22.23;76.31
14689;BME280;7432;48.728;9.154;2022-07-29T12:49:39;96467.91;;;22.31;78.91
14689;BME280;7432;48.728;9.154;2022-07-29T12:52:26;96472.06;;;22.44;79.44
14689;BME280;7432;48.728;9.154;2022-07-29T12:54:52;96466.44;;;22.52;79.97
14689;BME280;7432;48.728;9.154;2022-07-29T12:57:19;96464.88;;;22.51;81.85
14689;BME280;7432;48.728;9.154;2022-07-29T12:59:58;96464.63;;;22.53;81.98
14689;BME280;7432;48.728;9.154;2022-07-29T13:02:25;96475.53;;;22.61;82.59
14689;BME280;7432;48.728;9.154;2022-07-29T13:04:55;96477.03;;;22.57;81.51
14689;BME280;7432;48.728;9.154;2022-07-29T13:07:26;96484.97;;;22.46;82.83
14689;BME280;7432;48.728;9.154;2022-07-29T13:10:00;96493.44;;;22.36;83.12
14689;BME280;7432;48.728;9.154;2022-07-29T13:12:35;96508.66;;;22.22;84.16
14689;BME280;7432;48.728;9.154;2022-07-29T13:15:12;96498.41;;;22.21;85.29
14689;BME280;7432;48.728;9.154;2022-07-29T13:17:40;96504.50;;;22.10;86.14
14689;BME280;7432;48.728;9.154;2022-07-29T13:20:08;96504.16;;;22.06;86.52
14689;BME280;7432;48.728;9.154;2022-07-29T13:22:39;96511.66;;;22.03;85.44
14689;BME280;7432;48.728;9.154;2022-07-29T13:25:09;96503.81;;;21.79;86.25